»·PEaware :: EJM3 KSNA-KLAS

EJM3 :: KSNA-KLAS

FLIGHT INFORMATION

Flight Status: Arrived
Operator: Unknown
More flights by this operator :: More flights under this callsign
Pilot: Cody B. (17747)
Aircraft: BOEING 737-800
(B738)
More flights by this aircraft type
Origin: KSNA John Wayne-Orange Co
United States
Destination: KLAS McCarran Intl
United States
More flights between these airports :: More routes between these airports
Route: FINZZ2 MISEN KEPEC6
File this flight plan on PilotEdge
Remarks: RMK / SIMBRIEF
Altitude:
(Current/Filed)
29,000ft
Speed:
(Current/Filed)
448kts
Departed: 21-May-20 09:00 AM
Arrived: 21-May-20 09:41 AM
Distance/Time
Traveled:
197nm/0:41
Distance/Time
To Go:
Arrived

Flight Plot

Page will automatically refresh every two minutes.


Map Options




Map Legend


Flown Route
Filed Route
Departure Airport
Arrival Airport
Navaid (VOR, NDB)
Fix

Horizontal Profiles

Position Reports

Time Latitude Longitude Heading Altitude Ground
Speed
21-May-20 08:14 33.675060 -117.865106 117 67ft 0kts
21-May-20 08:15 33.675060 -117.865106 117 67ft 0kts
21-May-20 08:16 33.675060 -117.865106 117 67ft 0kts
21-May-20 08:17 33.675060 -117.865106 117 67ft 0kts
21-May-20 08:18 33.675060 -117.865106 117 67ft 0kts
21-May-20 08:19 33.675060 -117.865106 117 67ft 0kts
21-May-20 08:20 33.675060 -117.865106 117 67ft 0kts
21-May-20 08:21 33.675060 -117.865106 117 67ft 0kts
21-May-20 08:22 33.675060 -117.865106 117 67ft 0kts
21-May-20 08:23 33.675060 -117.865106 117 67ft 0kts
21-May-20 08:24 33.675060 -117.865106 117 67ft 0kts
21-May-20 08:25 33.675060 -117.865106 117 67ft 0kts
21-May-20 08:25 33.675060 -117.865106 117 67ft 0kts
21-May-20 08:27 33.675060 -117.865106 117 67ft 0kts
21-May-20 08:28 33.675060 -117.865106 117 67ft 0kts
21-May-20 08:29 33.675060 -117.865106 117 67ft 0kts
21-May-20 08:30 33.675060 -117.865106 117 67ft 0kts
21-May-20 08:30 33.675060 -117.865106 117 67ft 0kts
21-May-20 08:32 33.675060 -117.865106 117 67ft 0kts
21-May-20 08:32 33.675060 -117.865106 117 67ft 0kts
21-May-20 08:34 33.675060 -117.865106 117 67ft 0kts
21-May-20 08:34 33.675060 -117.865106 117 67ft 0kts
21-May-20 08:35 33.675060 -117.865106 117 67ft 0kts
21-May-20 08:37 33.675060 -117.865106 117 67ft 0kts
21-May-20 08:37 33.675060 -117.865106 117 67ft 0kts
21-May-20 08:38 33.675060 -117.865106 117 67ft 0kts
21-May-20 08:39 33.675060 -117.865106 117 67ft 0kts
21-May-20 08:40 33.675060 -117.865106 117 67ft 0kts
21-May-20 08:41 33.675060 -117.865106 117 67ft 0kts
21-May-20 08:42 33.675060 -117.865106 117 67ft 0kts
21-May-20 08:43 33.675060 -117.865106 117 67ft 0kts
21-May-20 08:44 33.675060 -117.865106 117 67ft 0kts
21-May-20 08:45 33.675060 -117.865106 117 67ft 0kts
21-May-20 08:46 33.675060 -117.865106 117 67ft 0kts
21-May-20 08:47 33.675060 -117.865106 117 67ft 0kts
21-May-20 08:48 33.675060 -117.865106 117 67ft 0kts
21-May-20 08:49 33.675061 -117.865106 117 67ft 0kts
21-May-20 08:50 33.675186 -117.865403 117 67ft 2kts
21-May-20 08:51 33.675138 -117.865834 25 67ft 1kts
21-May-20 08:52 33.675120 -117.865844 26 67ft 0kts
21-May-20 08:53 33.675120 -117.865844 26 67ft 0kts
21-May-20 08:54 33.675907 -117.865341 28 67ft 7kts
21-May-20 08:55 33.679068 -117.863333 28 67ft 12kts
21-May-20 08:56 33.681060 -117.863990 298 67ft 5kts
21-May-20 08:57 33.681153 -117.864199 298 67ft 0kts
21-May-20 08:58 33.681403 -117.865192 208 67ft 1kts
21-May-20 08:59 33.657219 -117.880512 207 1227ft 150kts
21-May-20 09:00 33.607772 -117.894617 184 2445ft 197kts
21-May-20 09:01 33.553143 -117.919082 220 4159ft 254kts
21-May-20 09:02 33.506764 -117.989649 257 6997ft 288kts
21-May-20 09:03 33.536282 -118.074593 317 10309ft 293kts
21-May-20 09:04 33.615399 -118.106651 6 12814ft 328kts
21-May-20 09:05 33.698581 -118.066062 23 14347ft 341kts
21-May-20 09:06 33.766723 -118.026411 22 16667ft 353kts
21-May-20 09:07 33.857057 -117.973699 21 19321ft 369kts
21-May-20 09:08 33.955079 -117.898294 31 21358ft 405kts
21-May-20 09:09 34.050871 -117.811841 34 23509ft 423kts
21-May-20 09:10 34.132329 -117.708901 43 25294ft 444kts
21-May-20 09:11 34.205724 -117.603521 44 26864ft 457kts
21-May-20 09:12 34.293340 -117.474392 44 28542ft 470kts
21-May-20 09:13 34.376122 -117.350745 44 29136ft 484kts
21-May-20 09:14 34.460290 -117.224661 45 29125ft 484kts
21-May-20 09:15 34.544179 -117.098631 44 29127ft 485kts
21-May-20 09:16 34.629346 -116.974225 43 29142ft 483kts
21-May-20 09:17 34.714735 -116.849694 43 29155ft 481kts
21-May-20 09:18 34.798309 -116.727370 43 29130ft 468kts
21-May-20 09:19 34.887141 -116.615007 33 29089ft 458kts
21-May-20 09:20 34.982461 -116.520754 31 27029ft 428kts
21-May-20 09:21 35.065502 -116.439903 32 25001ft 410kts
21-May-20 09:22 35.153307 -116.339566 40 24095ft 423kts
21-May-20 09:23 35.235273 -116.237365 41 23967ft 414kts
21-May-20 09:24 35.313436 -116.139283 41 21750ft 394kts
21-May-20 09:25 35.388477 -116.044822 42 19491ft 378kts
21-May-20 09:26 35.459493 -115.955050 42 18272ft 374kts
21-May-20 09:27 35.530155 -115.865510 43 16339ft 361kts
21-May-20 09:28 35.598711 -115.778408 43 14145ft 348kts
21-May-20 09:29 35.660041 -115.700135 44 13224ft 285kts
21-May-20 09:30 35.702531 -115.615088 71 12515ft 304kts
21-May-20 09:31 35.726723 -115.517726 71 11419ft 298kts
21-May-20 09:32 35.756185 -115.427556 39 10039ft 280kts
21-May-20 09:33 35.820495 -115.375643 31 8657ft 277kts
21-May-20 09:34 35.883182 -115.327351 31 7991ft 254kts
21-May-20 09:35 35.934025 -115.272693 48 6489ft 227kts
21-May-20 09:36 35.976038 -115.226308 29 4658ft 176kts
21-May-20 09:37 36.015633 -115.204541 25 3717ft 154kts
21-May-20 09:38 36.053204 -115.182948 25 2807ft 151kts
21-May-20 09:39 36.086630 -115.163924 25 2145ft 96kts
21-May-20 09:40 36.094149 -115.160702 296 2114ft 2kts
21-May-20 09:41 36.094139 -115.161997 210 2117ft 10kts
21-May-20 09:42 36.090612 -115.164031 204 2135ft 14kts
21-May-20 09:43 36.086652 -115.166310 205 2154ft 16kts
21-May-20 09:44 36.087653 -115.166326 24 2151ft 21kts
21-May-20 09:45 36.089436 -115.166190 271 2145ft 0kts
21-May-20 09:46 36.089436 -115.166190 271 2145ft 0kts
21-May-20 09:47 36.089436 -115.166190 271 2145ft 0kts
21-May-20 09:48 36.089436 -115.166190 271 2145ft 0kts
21-May-20 09:49 36.089436 -115.166190 271 2145ft 0kts
21-May-20 09:50 36.089436 -115.166190 271 2145ft 0kts
21-May-20 09:51 36.089436 -115.166190 271 2145ft 0kts
21-May-20 09:52 36.089436 -115.166190 271 2145ft 0kts
21-May-20 09:53 36.089436 -115.166190 271 2145ft 0kts
21-May-20 09:54 36.089436 -115.166190 271 2145ft 0kts

Navigation Log

Ident Type
Flight plan parsing failed, navigation log unavailable